Time;durP1;ratioP1;P1;durP2;ratioP2;P2;SDS_P1;SDS_P2;PMS_P1;PMS_P2;Temp;Humidity;BMP_temperature;BMP_pressure;BME280_temperature;BME280_humidity;BME280_pressure;Samples;Min_cycle;Max_cycle;Signal;HPM_P1;HPM_P2
2023/08/17 00:01:19;;;;;;;0.57;0.40;;;;;;;15.85;100.00;101338.41;5016402;28;20045;-54
2023/08/17 00:03:45;;;;;;;1.67;0.45;;;;;;;15.81;100.00;101334.53;5022220;28;20033;-56
2023/08/17 00:06:10;;;;;;;1.65;0.20;;;;;;;15.73;100.00;101334.72;5014734;28;20036;-54
2023/08/17 00:08:36;;;;;;;1.40;0.90;;;;;;;15.73;100.00;101340.06;5025897;28;20521;-56
2023/08/17 00:11:01;;;;;;;2.53;0.20;;;;;;;15.77;100.00;101335.94;5017547;28;20029;-58
2023/08/17 00:13:26;;;;;;;0.85;0.10;;;;;;;15.77;100.00;101336.75;5025522;28;20573;-53
2023/08/17 00:15:52;;;;;;;0.35;0.30;;;;;;;15.79;100.00;101329.38;5015117;28;20022;-57
2023/08/17 00:18:17;;;;;;;1.10;0.45;;;;;;;15.76;100.00;101332.47;5023884;28;20036;-53
2023/08/17 00:20:44;;;;;;;0.60;0.38;;;;;;;15.70;100.00;101335.97;5016341;28;20033;-56
2023/08/17 00:23:09;;;;;;;0.77;0.17;;;;;;;15.67;100.00;101328.31;5015529;28;20028;-56
2023/08/17 00:25:34;;;;;;;0.63;0.40;;;;;;;15.66;100.00;101340.03;5017041;28;20026;-55
2023/08/17 00:28:00;;;;;;;1.40;0.20;;;;;;;15.66;100.00;101340.84;5021246;28;20113;-54
2023/08/17 00:30:25;;;;;;;0.47;0.43;;;;;;;15.67;100.00;101339.00;5016590;28;20049;-56
2023/08/17 00:32:50;;;;;;;0.35;0.10;;;;;;;15.61;100.00;101337.13;5022401;28;20397;-57
2023/08/17 00:35:16;;;;;;;0.63;0.28;;;;;;;15.70;100.00;101328.75;5020443;28;20220;-56
2023/08/17 00:37:41;;;;;;;0.45;0.45;;;;;;;15.66;100.00;101332.00;5017047;28;20455;-59
2023/08/17 00:40:07;;;;;;;2.80;0.60;;;;;;;15.57;100.00;101328.72;5019741;28;20639;-57
2023/08/17 00:42:32;;;;;;;0.90;0.30;;;;;;;15.50;100.00;101338.56;5022953;28;20384;-57
2023/08/17 00:44:58;;;;;;;0.85;0.80;;;;;;;15.46;100.00;101332.81;5019448;28;20250;-57
2023/08/17 00:47:24;;;;;;;2.28;0.60;;;;;;;15.47;100.00;101331.78;5016641;28;20396;-55
2023/08/17 00:49:50;;;;;;;3.08;0.85;;;;;;;15.53;100.00;101329.31;5017956;28;20026;-55
2023/08/17 00:52:15;;;;;;;0.38;0.38;;;;;;;15.46;100.00;101327.47;5018057;28;20326;-56
2023/08/17 00:54:41;;;;;;;0.95;0.90;;;;;;;15.37;100.00;101331.34;5016359;28;20040;-56
2023/08/17 00:57:08;;;;;;;0.55;0.40;;;;;;;15.35;100.00;101328.03;5020896;28;20060;-56
2023/08/17 00:59:34;;;;;;;6.95;1.23;;;;;;;15.31;100.00;101324.13;5018075;28;20034;-55
2023/08/17 01:01:59;;;;;;;2.47;1.25;;;;;;;15.31;100.00;101328.63;5022711;28;20075;-56
2023/08/17 01:04:24;;;;;;;1.00;0.88;;;;;;;15.33;100.00;101331.94;5021633;28;20061;-54
2023/08/17 01:06:50;;;;;;;0.82;0.57;;;;;;;15.43;100.00;101329.69;5016621;28;20033;-52
2023/08/17 01:09:15;;;;;;;0.55;0.43;;;;;;;15.48;100.00;101337.94;5012127;28;20439;-58
2023/08/17 01:12:05;;;;;;;1.45;0.57;;;;;;;15.46;100.00;101335.47;5018010;28;20032;-57
2023/08/17 01:14:36;;;;;;;2.35;0.43;;;;;;;15.40;100.00;101325.59;5011734;28;20029;-56
2023/08/17 01:17:17;;;;;;;5.22;0.82;;;;;;;15.34;100.00;101329.06;5019636;28;20033;-56
2023/08/17 01:19:45;;;;;;;0.65;0.65;;;;;;;15.33;100.00;101334.59;5018749;28;20072;-59
2023/08/17 01:22:14;;;;;;;2.95;1.58;;;;;;;15.35;100.00;101329.88;5018895;28;20025;-58
2023/08/17 01:24:39;;;;;;;1.23;1.05;;;;;;;15.36;100.00;101328.84;5006128;28;20041;-54
2023/08/17 01:27:05;;;;;;;0.82;0.77;;;;;;;15.27;100.00;101331.72;5009913;28;20683;-55
2023/08/17 01:29:30;;;;;;;1.45;1.35;;;;;;;15.35;100.00;101322.69;5014699;28;20037;-58
2023/08/17 01:31:58;;;;;;;2.35;1.02;;;;;;;15.48;100.00;101321.91;5016202;28;20045;-53
2023/08/17 01:34:27;;;;;;;3.10;1.23;;;;;;;15.55;100.00;101319.25;5020774;28;20044;-56
2023/08/17 01:36:56;;;;;;;3.03;1.90;;;;;;;15.54;100.00;101317.59;5016901;28;20483;-57
2023/08/17 01:39:26;;;;;;;4.20;1.25;;;;;;;15.52;100.00;101327.69;5013420;28;20183;-58
2023/08/17 01:41:55;;;;;;;5.68;1.45;;;;;;;15.62;100.00;101326.25;5014516;28;20032;-55
2023/08/17 01:44:21;;;;;;;3.75;2.60;;;;;;;15.84;100.00;101328.75;5015877;28;20075;-55
2023/08/17 01:46:46;;;;;;;8.57;3.03;;;;;;;16.04;100.00;101328.78;5016862;28;20415;-56
2023/08/17 01:49:11;;;;;;;1.95;1.73;;;;;;;16.07;100.00;101320.31;5012227;28;20041;-57
2023/08/17 01:51:36;;;;;;;2.72;1.30;;;;;;;16.14;100.00;101330.00;5021158;28;20060;-56
2023/08/17 01:54:02;;;;;;;3.47;2.55;;;;;;;15.92;100.00;101321.34;5020879;28;20032;-57
2023/08/17 01:56:27;;;;;;;10.15;3.38;;;;;;;16.03;100.00;101324.44;5020142;28;20036;-53
2023/08/17 01:58:52;;;;;;;2.78;2.05;;;;;;;16.10;100.00;101327.94;5014616;28;20037;-55
2023/08/17 02:01:18;;;;;;;3.63;3.15;;;;;;;16.39;100.00;101326.66;5010384;28;20096;-54
2023/08/17 02:03:43;;;;;;;3.80;2.47;;;;;;;16.66;100.00;101323.94;5014003;28;20398;-56
2023/08/17 02:06:08;;;;;;;5.00;3.80;;;;;;;16.72;100.00;101323.91;5011289;28;20522;-59
2023/08/17 02:08:35;;;;;;;5.13;2.70;;;;;;;16.84;100.00;101321.44;5014077;28;20119;-58
2023/08/17 02:11:00;;;;;;;6.47;2.85;;;;;;;16.95;100.00;101322.63;5016325;28;20033;-54
2023/08/17 02:13:27;;;;;;;3.80;2.38;;;;;;;17.08;100.00;101321.72;5013968;28;20390;-52
2023/08/17 02:15:52;;;;;;;4.72;2.45;;;;;;;17.27;100.00;101330.69;5021351;28;20044;-56
2023/08/17 02:18:17;;;;;;;5.70;2.75;;;;;;;17.38;100.00;101327.34;5018032;28;20459;-54
2023/08/17 02:20:43;;;;;;;14.90;3.20;;;;;;;17.47;100.00;101318.00;5019735;28;20029;-55
2023/08/17 02:23:08;;;;;;;3.92;3.00;;;;;;;17.52;100.00;101322.72;5018734;28;20217;-56
2023/08/17 02:25:35;;;;;;;10.95;4.00;;;;;;;17.67;100.00;101326.72;5017992;28;20083;-53
2023/08/17 02:28:02;;;;;;;3.85;2.97;;;;;;;17.80;100.00;101320.47;5015198;28;20073;-58
2023/08/17 02:30:27;;;;;;;7.53;2.30;;;;;;;17.87;100.00;101320.44;5018128;28;20507;-57
2023/08/17 02:32:52;;;;;;;9.43;2.75;;;;;;;17.82;100.00;101322.94;5014473;28;20034;-56
2023/08/17 02:35:18;;;;;;;8.55;3.65;;;;;;;17.78;100.00;101332.44;5020650;28;20376;-59
2023/08/17 02:37:43;;;;;;;12.73;4.05;;;;;;;17.86;100.00;101330.34;5015850;28;20786;-57
2023/08/17 02:40:09;;;;;;;9.63;4.32;;;;;;;17.95;100.00;101325.53;5019050;28;20107;-55
2023/08/17 02:42:35;;;;;;;4.78;3.50;;;;;;;18.00;100.00;101331.06;5013674;28;20382;-57
2023/08/17 02:45:00;;;;;;;6.75;4.18;;;;;;;18.14;100.00;101330.94;5022695;28;20029;-56
2023/08/17 02:47:25;;;;;;;13.75;4.35;;;;;;;18.31;100.00;101315.91;5020103;28;20061;-58
2023/08/17 02:49:51;;;;;;;9.45;4.55;;;;;;;18.38;100.00;101335.47;5016710;28;20433;-53
2023/08/17 02:52:16;;;;;;;7.60;4.28;;;;;;;18.45;100.00;101325.44;5018048;28;20040;-55
2023/08/17 02:54:41;;;;;;;13.43;2.97;;;;;;;18.52;100.00;101326.22;5016682;28;20054;-56
2023/08/17 02:57:07;;;;;;;2.75;2.33;;;;;;;18.56;100.00;101323.06;5018983;28;20588;-57
2023/08/17 02:59:32;;;;;;;6.65;4.55;;;;;;;18.51;100.00;101318.41;5018847;28;20037;-52
2023/08/17 03:01:57;;;;;;;13.00;4.70;;;;;;;18.50;100.00;101314.88;5017014;28;20054;-56
2023/08/17 03:04:23;;;;;;;10.52;4.75;;;;;;;18.42;100.00;101322.41;5017757;28;20026;-56
2023/08/17 03:06:48;;;;;;;7.00;3.42;;;;;;;18.49;100.00;101321.28;5016326;28;20060;-53
2023/08/17 03:09:13;;;;;;;9.48;4.88;;;;;;;18.44;100.00;101321.13;5016414;28;20632;-51
2023/08/17 03:11:38;;;;;;;4.43;3.17;;;;;;;18.53;100.00;101314.44;5018692;28;20488;-57
2023/08/17 03:14:04;;;;;;;8.52;4.13;;;;;;;18.49;100.00;101315.09;5013939;28;20558;-56
2023/08/17 03:16:30;;;;;;;8.55;3.03;;;;;;;18.49;100.00;101318.59;5015514;28;20128;-54
2023/08/17 03:18:56;;;;;;;4.90;3.05;;;;;;;18.49;100.00;101315.91;5010482;28;20105;-57
2023/08/17 03:21:22;;;;;;;8.02;4.45;;;;;;;18.49;100.00;101315.91;5020274;28;20037;-54
2023/08/17 03:23:48;;;;;;;3.40;3.10;;;;;;;18.51;100.00;101307.66;5019567;28;20472;-54
2023/08/17 03:26:13;;;;;;;5.32;3.03;;;;;;;18.57;100.00;101314.00;5015482;28;20022;-55
2023/08/17 03:28:38;;;;;;;6.93;3.42;;;;;;;18.60;100.00;101314.34;5016913;28;20045;-55
2023/08/17 03:31:03;;;;;;;5.43;2.47;;;;;;;18.59;100.00;101312.72;5016751;28;20032;-53
2023/08/17 03:33:29;;;;;;;6.43;3.28;;;;;;;18.72;100.00;101309.06;5018862;28;20149;-52
2023/08/17 03:35:54;;;;;;;4.22;2.88;;;;;;;18.81;100.00;101305.03;5019320;28;20050;-55
2023/08/17 03:38:20;;;;;;;11.55;3.55;;;;;;;18.88;100.00;101303.09;5011402;28;20449;-56
2023/08/17 03:40:48;;;;;;;8.98;2.33;;;;;;;18.83;100.00;101304.81;5018519;28;20058;-54
2023/08/17 03:43:14;;;;;;;4.85;3.20;;;;;;;18.86;100.00;101302.50;5018442;28;20465;-51
2023/08/17 03:45:41;;;;;;;6.90;2.33;;;;;;;18.78;100.00;101302.81;5010895;28;20034;-55
2023/08/17 03:48:07;;;;;;;3.03;1.73;;;;;;;18.76;100.00;101310.28;5014690;28;20091;-57
2023/08/17 03:50:32;;;;;;;3.83;3.20;;;;;;;18.77;100.00;101305.72;5015681;28;20041;-55
2023/08/17 03:52:58;;;;;;;6.72;2.75;;;;;;;18.68;100.00;101305.19;5018982;28;20038;-54
2023/08/17 03:55:23;;;;;;;6.32;3.08;;;;;;;18.73;100.00;101308.81;5019348;28;20034;-55
2023/08/17 03:57:49;;;;;;;5.50;2.42;;;;;;;18.64;100.00;101304.81;5016598;28;20040;-50
2023/08/17 04:00:14;;;;;;;5.10;2.78;;;;;;;18.47;100.00;101307.25;5015368;28;20125;-56
2023/08/17 04:02:39;;;;;;;5.63;2.80;;;;;;;18.56;100.00;101306.97;5017475;28;20116;-59
2023/08/17 04:05:05;;;;;;;10.25;3.05;;;;;;;18.70;100.00;101295.03;5017528;28;20026;-60
2023/08/17 04:07:30;;;;;;;8.63;3.42;;;;;;;18.62;100.00;101293.47;5019638;28;20042;-58
2023/08/17 04:09:56;;;;;;;3.78;2.50;;;;;;;18.62;100.00;101295.34;5019765;28;20555;-60
2023/08/17 04:12:21;;;;;;;3.97;3.17;;;;;;;18.64;100.00;101309.34;5016813;28;20030;-60
2023/08/17 04:14:46;;;;;;;2.38;1.95;;;;;;;18.58;100.00;101304.88;5012566;28;20029;-61
2023/08/17 04:17:12;;;;;;;7.68;2.92;;;;;;;18.49;100.00;101301.69;5010724;28;20071;-58
2023/08/17 04:19:37;;;;;;;3.42;2.55;;;;;;;18.44;100.00;101302.34;5018671;28;20487;-59
2023/08/17 04:22:03;;;;;;;5.10;1.42;;;;;;;18.36;100.00;101299.97;5009837;28;20376;-57
2023/08/17 04:24:28;;;;;;;7.10;2.55;;;;;;;18.37;100.00;101304.28;5013203;28;20372;-58
2023/08/17 04:26:54;;;;;;;2.35;1.73;;;;;;;18.42;100.00;101296.38;5010685;28;20041;-58
2023/08/17 04:29:19;;;;;;;4.18;2.50;;;;;;;18.39;100.00;101301.38;5020780;28;20120;-57
2023/08/17 04:31:45;;;;;;;4.15;1.60;;;;;;;18.39;100.00;101298.69;5017004;28;20044;-59
2023/08/17 04:34:10;;;;;;;2.58;1.50;;;;;;;18.37;100.00;101300.78;5015362;28;20528;-58
2023/08/17 04:36:36;;;;;;;7.85;1.95;;;;;;;18.28;100.00;101290.34;5014440;28;20065;-56
2023/08/17 04:39:01;;;;;;;4.68;1.80;;;;;;;18.29;100.00;101294.66;5013527;28;20045;-58
2023/08/17 04:41:27;;;;;;;7.93;2.22;;;;;;;18.26;100.00;101286.22;5017166;28;20033;-61
2023/08/17 04:43:52;;;;;;;4.97;1.33;;;;;;;18.26;100.00;101292.41;5015003;28;20482;-57
2023/08/17 04:46:17;;;;;;;7.53;3.45;;;;;;;18.23;100.00;101297.41;5018162;28;20033;-60
2023/08/17 04:48:43;;;;;;;3.28;1.67;;;;;;;18.15;100.00;101295.00;5013549;28;20030;-57
2023/08/17 04:51:08;;;;;;;2.78;1.42;;;;;;;18.10;100.00;101298.38;5016604;28;20041;-55
2023/08/17 04:53:33;;;;;;;7.85;2.17;;;;;;;18.10;100.00;101298.38;5018197;28;20037;-59
2023/08/17 04:55:59;;;;;;;1.90;1.10;;;;;;;18.10;100.00;101295.69;5014920;28;20022;-59
2023/08/17 04:58:24;;;;;;;3.70;1.83;;;;;;;18.06;100.00;101297.97;5015956;28;20549;-56
2023/08/17 05:00:50;;;;;;;5.60;1.98;;;;;;;18.12;100.00;101300.81;5014222;28;20025;-56
2023/08/17 05:03:15;;;;;;;3.05;2.10;;;;;;;18.27;100.00;101298.59;5016862;28;20049;-60
2023/08/17 05:05:41;;;;;;;4.65;1.95;;;;;;;18.30;100.00;101298.16;5020447;28;20785;-59
2023/08/17 05:08:06;;;;;;;6.00;2.38;;;;;;;18.25;100.00;101298.00;5015539;28;20407;-59
2023/08/17 05:10:31;;;;;;;5.53;1.67;;;;;;;18.33;100.00;101302.25;5016350;28;20044;-59
2023/08/17 05:12:57;;;;;;;7.22;2.40;;;;;;;18.36;100.00;101305.31;5019435;28;20378;-59
2023/08/17 05:15:22;;;;;;;6.60;2.15;;;;;;;18.37;100.00;101298.09;5018007;28;20047;-57
2023/08/17 05:17:47;;;;;;;6.70;2.22;;;;;;;18.33;100.00;101300.41;5013333;28;20404;-58
2023/08/17 05:20:13;;;;;;;9.43;2.50;;;;;;;18.25;100.00;101303.34;5019401;28;20120;-57
2023/08/17 05:22:38;;;;;;;3.53;1.90;;;;;;;18.24;100.00;101310.59;5015674;28;20116;-57
2023/08/17 05:25:04;;;;;;;12.32;4.00;;;;;;;18.24;100.00;101299.84;5015126;28;20038;-60
2023/08/17 05:27:30;;;;;;;4.40;2.05;;;;;;;18.44;100.00;101310.41;5017449;28;20153;-60
2023/08/17 05:29:55;;;;;;;3.80;1.58;;;;;;;18.46;100.00;101308.31;5019015;28;20390;-59
2023/08/17 05:32:20;;;;;;;2.85;2.33;;;;;;;18.41;100.00;101315.41;5010946;28;20063;-59
2023/08/17 05:34:47;;;;;;;8.00;2.25;;;;;;;18.42;100.00;101312.47;5019654;28;20497;-58
2023/08/17 05:37:12;;;;;;;3.60;2.30;;;;;;;18.47;100.00;101307.25;5017701;28;20279;-58
2023/08/17 05:39:39;;;;;;;2.42;2.13;;;;;;;18.43;100.00;101308.78;5018659;28;20045;-59
2023/08/17 05:42:04;;;;;;;8.00;2.40;;;;;;;18.42;100.00;101306.28;5016189;28;20117;-59
2023/08/17 05:44:30;;;;;;;4.80;2.85;;;;;;;18.37;100.00;101308.81;5017496;28;20029;-59
2023/08/17 05:46:55;;;;;;;3.65;1.65;;;;;;;18.42;100.00;101307.09;5017665;28;20034;-60
2023/08/17 05:49:20;;;;;;;7.32;2.55;;;;;;;18.27;100.00;101298.59;5005061;28;20034;-60
2023/08/17 05:51:46;;;;;;;7.10;1.95;;;;;;;18.43;100.00;101302.56;5020025;28;20034;-60
2023/08/17 05:54:11;;;;;;;4.45;2.45;;;;;;;18.59;100.00;101304.66;5016744;28;20045;-58
2023/08/17 05:56:37;;;;;;;5.63;2.40;;;;;;;18.68;100.00;101299.81;5018052;28;20029;-59
2023/08/17 05:59:02;;;;;;;3.47;1.33;;;;;;;18.76;100.00;101286.09;5015610;28;20057;-56
2023/08/17 06:01:27;;;;;;;4.22;2.08;;;;;;;18.78;100.00;101284.00;5019327;28;20094;-60
2023/08/17 06:03:53;;;;;;;12.73;3.35;;;;;;;18.76;100.00;101290.66;5017041;28;20029;-59
2023/08/17 06:06:18;;;;;;;4.85;1.88;;;;;;;18.80;100.00;101287.28;5020338;28;20061;-56
2023/08/17 06:08:44;;;;;;;3.17;2.30;;;;;;;18.89;100.00;101285.91;5019463;28;20044;-59
2023/08/17 06:11:09;;;;;;;6.38;2.40;;;;;;;18.90;100.00;101300.19;5023935;28;20025;-58
2023/08/17 06:13:35;;;;;;;2.90;1.48;;;;;;;18.88;100.00;101297.72;5022469;28;20560;-57
2023/08/17 06:16:01;;;;;;;2.60;1.92;;;;;;;18.70;100.00;101303.09;5020561;28;20426;-59
2023/08/17 06:18:26;;;;;;;4.38;3.50;;;;;;;19.10;100.00;101297.22;5021768;28;20033;-59
2023/08/17 06:20:53;;;;;;;10.25;2.70;;;;;;;19.12;100.00;101301.31;5037637;28;20053;-58
2023/08/17 06:23:19;;;;;;;7.72;1.88;;;;;;;19.21;100.00;101303.72;5031659;28;20056;-61
2023/08/17 06:25:45;;;;;;;7.60;2.75;;;;;;;19.30;100.00;101307.72;5026654;28;20035;-59
2023/08/17 06:28:10;;;;;;;6.85;3.83;;;;;;;19.46;100.00;101314.31;5017740;28;20029;-60
2023/08/17 06:30:36;;;;;;;6.57;2.78;;;;;;;19.55;100.00;101310.25;5021124;28;20108;-60
2023/08/17 06:33:01;;;;;;;2.17;1.92;;;;;;;19.68;100.00;101304.69;5021711;28;20033;-58
2023/08/17 06:35:26;;;;;;;6.75;1.92;;;;;;;19.68;100.00;101310.06;5024695;28;20029;-59
2023/08/17 06:37:55;;;;;;;6.40;2.78;;;;;;;19.76;100.00;101307.03;5025072;28;20069;-60
2023/08/17 06:40:21;;;;;;;5.28;1.80;;;;;;;19.85;100.00;101306.69;5015755;28;20052;-59
2023/08/17 06:42:46;;;;;;;6.63;2.63;;;;;;;19.80;100.00;101300.16;5025281;28;20025;-61
2023/08/17 06:45:12;;;;;;;3.45;1.10;;;;;;;19.90;100.00;101294.16;5018470;28;20064;-58
2023/08/17 06:47:37;;;;;;;7.45;2.47;;;;;;;19.78;100.00;101299.56;5024978;28;20030;-58
2023/08/17 06:50:03;;;;;;;8.00;1.50;;;;;;;19.82;100.00;101298.03;5022185;28;20040;-59
2023/08/17 06:52:28;;;;;;;4.15;2.22;;;;;;;19.82;100.00;101297.22;5017978;28;20026;-59
2023/08/17 06:54:54;;;;;;;5.32;2.28;;;;;;;19.83;100.00;101301.56;5022134;28;20052;-59
2023/08/17 06:57:21;;;;;;;3.05;1.60;;;;;;;19.86;100.00;101301.09;5021683;28;20044;-61
2023/08/17 06:59:46;;;;;;;7.78;2.88;;;;;;;19.92;100.00;101310.09;5022470;28;20021;-61
2023/08/17 07:02:12;;;;;;;5.43;1.52;;;;;;;19.98;100.00;101301.91;5017828;28;20407;-59
2023/08/17 07:04:37;;;;;;;5.15;1.70;;;;;;;20.19;100.00;101311.28;5020812;28;20034;-58
2023/08/17 07:07:03;;;;;;;7.53;1.48;;;;;;;20.23;100.00;101308.91;5020066;28;20028;-58
2023/08/17 07:09:28;;;;;;;4.63;1.27;;;;;;;20.35;100.00;101322.38;5021956;28;20063;-59
2023/08/17 07:11:53;;;;;;;7.30;2.20;;;;;;;20.41;100.00;101321.44;5022403;28;20490;-57
2023/08/17 07:14:19;;;;;;;4.60;1.92;;;;;;;20.60;100.00;101314.91;5018388;28;20041;-58
2023/08/17 07:16:44;;;;;;;8.60;1.77;;;;;;;20.79;100.00;101320.13;5013839;28;20036;-57
2023/08/17 07:19:10;;;;;;;4.40;1.30;;;;;;;20.87;100.00;101317.03;5019657;28;20040;-60
2023/08/17 07:21:35;;;;;;;7.80;1.33;;;;;;;21.02;100.00;101313.84;5015014;28;20037;-60
2023/08/17 07:24:11;;;;;;;9.32;2.38;;;;;;;21.13;100.00;101311.06;5020922;28;20144;-58
2023/08/17 07:26:36;;;;;;;7.88;1.95;;;;;;;21.29;100.00;101308.66;5018935;28;20390;-58
2023/08/17 07:29:02;;;;;;;7.90;3.03;;;;;;;21.31;100.00;101312.75;5018824;28;20098;-56
2023/08/17 07:31:27;;;;;;;4.55;1.40;;;;;;;21.45;100.00;101307.91;5011436;28;20029;-56
2023/08/17 07:33:52;;;;;;;7.50;1.80;;;;;;;21.52;100.00;101313.97;5017936;28;20026;-58
2023/08/17 07:36:18;;;;;;;8.68;1.50;;;;;;;21.62;100.00;101307.91;5021956;28;20033;-57
2023/08/17 07:38:43;;;;;;;5.97;1.45;;;;;;;21.50;100.00;101310.72;5022894;28;20037;-62
2023/08/17 07:41:08;;;;;;;4.07;2.40;;;;;;;21.63;100.00;101311.44;4999024;28;20030;-61
2023/08/17 07:43:34;;;;;;;10.40;2.58;;;;;;;21.78;100.00;101322.47;5004823;28;20033;-62
2023/08/17 07:45:59;;;;;;;9.23;1.80;;;;;;;21.61;100.00;101310.84;5007623;28;20478;-60
2023/08/17 07:48:24;;;;;;;8.52;1.27;;;;;;;21.73;100.00;101320.50;5004200;28;20026;-60
2023/08/17 07:50:51;;;;;;;3.33;1.25;;;;;;;21.88;100.00;101305.63;5004185;28;20032;-59
2023/08/17 07:53:17;;;;;;;15.35;2.80;;;;;;;22.07;100.00;101304.31;5004490;28;20427;-60
2023/08/17 07:55:42;;;;;;;4.32;0.90;;;;;;;22.18;100.00;101308.78;5004953;28;20094;-60
2023/08/17 07:58:08;;;;;;;17.50;2.67;;;;;;;22.40;100.00;101306.13;5005965;28;20037;-59
2023/08/17 08:00:33;;;;;;;3.42;1.00;;;;;;;22.58;100.00;101299.63;5003468;28;20145;-57
2023/08/17 08:02:58;;;;;;;5.63;1.17;;;;;;;22.45;100.00;101293.78;5004742;28;20050;-58
2023/08/17 08:05:24;;;;;;;3.53;1.75;;;;;;;22.47;100.00;101314.06;5004571;28;20030;-58
2023/08/17 08:07:50;;;;;;;2.17;0.95;;;;;;;22.51;100.00;101298.16;5005141;28;20391;-58
2023/08/17 08:10:15;;;;;;;2.75;1.02;;;;;;;22.42;100.00;101301.31;5011759;28;20037;-58
2023/08/17 08:12:40;;;;;;;7.20;1.40;;;;;;;22.52;100.00;101300.63;5002185;28;20026;-59
2023/08/17 08:15:06;;;;;;;3.08;1.02;;;;;;;22.57;100.00;101305.28;5004199;28;20029;-58
2023/08/17 08:17:32;;;;;;;5.05;1.38;;;;;;;22.58;100.00;101301.50;5001093;28;20491;-56
2023/08/17 08:19:58;;;;;;;3.22;0.98;;;;;;;22.79;100.00;101299.88;5005090;28;20037;-58
2023/08/17 08:22:23;;;;;;;3.53;1.13;;;;;;;22.78;100.00;101290.94;5002916;28;20527;-57
2023/08/17 08:24:48;;;;;;;6.97;1.20;;;;;;;22.91;100.00;101294.34;5001226;28;20535;-58
2023/08/17 08:27:14;;;;;;;4.03;1.75;;;;;;;22.89;100.00;101288.34;5003959;28;20390;-57
2023/08/17 08:29:39;;;;;;;4.13;2.05;;;;;;;23.01;100.00;101286.38;5004232;28;20080;-56
2023/08/17 08:32:05;;;;;;;6.60;2.00;;;;;;;22.99;100.00;101272.28;5003739;28;20033;-57
2023/08/17 08:34:30;;;;;;;2.35;0.93;;;;;;;23.21;100.00;101272.25;5003351;28;20128;-55
2023/08/17 08:36:55;;;;;;;2.80;0.98;;;;;;;23.28;100.00;101279.06;5011435;28;20068;-57
2023/08/17 08:39:21;;;;;;;5.60;1.45;;;;;;;23.19;100.00;101277.88;5004867;28;20127;-58
2023/08/17 08:41:46;;;;;;;3.13;1.25;;;;;;;23.27;100.00;101280.13;5006474;28;20044;-55
2023/08/17 08:44:12;;;;;;;3.28;0.90;;;;;;;23.39;100.00;101277.28;5007293;28;20073;-56
2023/08/17 08:46:41;;;;;;;5.07;1.48;;;;;;;23.51;100.00;101274.38;5004041;28;20163;-54
2023/08/17 08:49:10;;;;;;;2.75;1.08;;;;;;;23.71;100.00;101276.44;5004691;28;20471;-58
2023/08/17 08:51:44;;;;;;;10.43;1.80;;;;;;;23.86;100.00;101270.34;5000222;28;20055;-54
2023/08/17 08:54:14;;;;;;;1.80;0.77;;;;;;;24.06;100.00;101267.78;5000972;28;20028;-56
2023/08/17 08:56:42;;;;;;;4.97;1.42;;;;;;;23.95;100.00;101263.34;5003215;28;20038;-58
2023/08/17 08:59:09;;;;;;;7.35;2.22;;;;;;;23.54;100.00;101275.75;5006351;28;20026;-60
2023/08/17 09:01:35;;;;;;;3.08;1.38;;;;;;;23.37;100.00;101267.78;4999955;28;20046;-59
2023/08/17 09:04:00;;;;;;;1.13;0.75;;;;;;;23.55;100.00;101274.69;5006882;28;20398;-58
2023/08/17 09:06:27;;;;;;;3.10;1.10;;;;;;;23.84;100.00;101265.19;5001527;28;20025;-54
2023/08/17 09:08:53;;;;;;;5.90;1.13;;;;;;;23.99;100.00;101264.47;5003460;28;20533;-57
2023/08/17 09:11:18;;;;;;;4.22;0.95;;;;;;;24.13;100.00;101260.19;5013331;28;22077;-61
2023/08/17 09:13:43;;;;;;;7.75;1.00;;;;;;;23.98;100.00;101272.84;5010077;28;20080;-54
2023/08/17 09:16:09;;;;;;;4.00;0.80;;;;;;;24.26;100.00;101277.06;5006785;28;20025;-55
2023/08/17 09:18:35;;;;;;;5.03;0.82;;;;;;;24.20;100.00;101264.59;5002860;28;20080;-56
2023/08/17 09:21:01;;;;;;;4.72;0.73;;;;;;;24.19;100.00;101263.78;5005362;28;20459;-56
2023/08/17 09:23:26;;;;;;;6.07;1.30;;;;;;;24.40;100.00;101266.59;5003015;28;20384;-56
2023/08/17 09:25:54;;;;;;;0.55;0.45;;;;;;;24.72;100.00;101248.28;5005300;28;20087;-60
2023/08/17 09:28:20;;;;;;;2.88;1.13;;;;;;;24.74;100.00;101248.84;5004012;28;20382;-57
2023/08/17 09:30:57;;;;;;;5.18;0.40;;;;;;;24.83;100.00;101238.25;5005923;28;20034;-59
2023/08/17 09:33:24;;;;;;;2.58;0.40;;;;;;;24.91;100.00;101231.50;5008163;28;20073;-56
2023/08/17 09:35:50;;;;;;;2.25;0.28;;;;;;;25.11;100.00;101228.00;5007945;28;20065;-59
2023/08/17 09:38:16;;;;;;;6.75;0.40;;;;;;;25.23;100.00;101234.03;5005083;28;20100;-55
2023/08/17 09:40:42;;;;;;;1.90;0.30;;;;;;;25.09;100.00;101235.59;5006648;28;20072;-57
2023/08/17 09:43:09;;;;;;;2.58;1.58;;;;;;;25.14;100.00;101239.13;5010825;28;20026;-57
2023/08/17 09:45:37;;;;;;;1.15;0.40;;;;;;;25.65;100.00;101241.84;5011322;28;20044;-57
2023/08/17 09:48:03;;;;;;;4.47;0.65;;;;;;;25.68;100.00;101251.38;5010939;28;20032;-58
2023/08/17 09:50:28;;;;;;;4.85;0.93;;;;;;;25.37;100.00;101240.53;5010339;28;20044;-60
2023/08/17 09:52:54;;;;;;;4.53;1.40;;;;;;;25.15;100.00;101242.69;5009098;28;20124;-59
2023/08/17 09:55:21;;;;;;;1.13;0.52;;;;;;;25.48;100.00;101235.09;5003085;28;20061;-57
2023/08/17 09:57:49;;;;;;;2.30;0.47;;;;;;;25.39;100.00;101226.69;5001758;28;20386;-60
2023/08/17 10:00:14;;;;;;;1.73;0.38;;;;;;;25.30;100.00;101234.56;5004877;28;20151;-58
2023/08/17 10:02:40;;;;;;;2.53;0.38;;;;;;;25.35;100.00;101242.72;5011458;28;20041;-61
2023/08/17 10:05:11;;;;;;;3.13;0.32;;;;;;;25.33;100.00;101239.44;5015172;28;20061;-63
2023/08/17 10:07:41;;;;;;;4.03;0.35;;;;;;;25.38;100.00;101238.66;5010827;28;20026;-62
2023/08/17 10:10:07;;;;;;;1.65;0.55;;;;;;;25.60;100.00;101243.78;5013308;28;20030;-63
2023/08/17 10:12:37;;;;;;;3.03;0.70;;;;;;;25.79;100.00;101233.97;5011219;28;20053;-63
2023/08/17 10:15:07;;;;;;;2.53;0.50;;;;;;;25.75;100.00;101224.75;5009466;28;20048;-63
2023/08/17 10:17:43;;;;;;;4.50;1.45;;;;;;;25.91;100.00;101216.59;5008132;28;20048;-62
2023/08/17 10:20:10;;;;;;;4.03;0.75;;;;;;;26.05;100.00;101223.09;5013243;28;20160;-60
2023/08/17 10:22:51;;;;;;;1.80;0.40;;;;;;;26.38;100.00;101220.75;5028875;28;20029;-55
2023/08/17 10:25:17;;;;;;;;;;;;;;;26.95;100.00;101224.81;5016487;28;20025;-63
2023/08/17 10:27:43;;;;;;;3.95;0.55;;;;;;;26.99;100.00;101220.44;5013959;28;19925;-60
2023/08/17 10:30:12;;;;;;;3.70;1.05;;;;;;;27.29;100.00;101216.69;5013235;28;20313;-61
2023/08/17 10:32:38;;;;;;;5.05;0.47;;;;;;;27.01;100.00;101222.88;5013617;28;20040;-61
2023/08/17 10:35:05;;;;;;;1.58;0.28;;;;;;;26.62;100.00;101216.31;5008598;28;20084;-57
2023/08/17 10:37:32;;;;;;;3.65;0.35;;;;;;;26.51;100.00;101223.69;5016271;28;20037;-60
2023/08/17 10:39:57;;;;;;;0.98;0.25;;;;;;;27.04;100.00;101212.22;5019133;28;20037;-58
2023/08/17 10:42:32;;;;;;;4.22;0.45;;;;;;;27.65;100.00;101215.53;5016091;28;20833;-57
2023/08/17 10:44:57;;;;;;;2.95;0.70;;;;;;;27.48;100.00;101202.34;5014052;28;20044;-59
2023/08/17 10:47:31;;;;;;;3.22;0.38;;;;;;;27.54;100.00;101210.19;5014344;28;20037;-57
2023/08/17 10:50:17;;;;;;;2.65;0.80;;;;;;;27.33;100.00;101200.59;5017360;28;20085;-60
2023/08/17 10:52:43;;;;;;;3.95;0.30;;;;;;;27.20;100.00;101199.34;5017664;28;20058;-61
2023/08/17 10:55:12;;;;;;;9.75;1.08;;;;;;;27.58;100.00;101200.34;5018045;28;20091;-59
2023/08/17 10:57:41;;;;;;;4.18;0.20;;;;;;;27.26;100.00;101197.38;5013263;28;20107;-61
2023/08/17 11:00:26;;;;;;;3.17;0.32;;;;;;;26.97;100.00;101206.28;5015877;28;20053;-63
2023/08/17 11:03:05;;;;;;;1.55;0.70;;;;;;;26.48;100.00;101201.69;5013571;28;20409;-61
2023/08/17 11:05:55;;;;;;;3.03;0.63;;;;;;;26.32;100.00;101196.31;5014820;28;20048;-59
2023/08/17 11:08:23;;;;;;;4.03;0.30;;;;;;;26.19;100.00;101196.13;5012793;28;20129;-59
2023/08/17 11:11:13;;;;;;;1.10;0.20;;;;;;;26.26;100.00;101200.16;5018624;28;20037;-61
2023/08/17 11:13:43;;;;;;;2.33;0.10;;;;;;;26.37;100.00;101191.97;5016871;28;20107;-62